Time;durP1;ratioP1;P1;durP2;ratioP2;P2;SDS_P1;SDS_P2;PMS_P1;PMS_P2;Temp;Humidity;BMP_temperature;BMP_pressure;BME280_temperature;BME280_humidity;BME280_pressure;Samples;Min_cycle;Max_cycle;Signal;HPM_P1;HPM_P2
2024/01/15 00:00:38;;;;;;;2.60;2.40;;;18.80;37.20;;;;;;5017109;28;20235;-71
2024/01/15 00:03:04;;;;;;;2.40;2.30;;;18.80;37.20;;;;;;5023093;28;20506;-70
2024/01/15 00:05:30;;;;;;;2.70;2.50;;;18.80;37.20;;;;;;5026525;28;20437;-70
2024/01/15 00:07:55;;;;;;;2.37;2.27;;;18.80;37.10;;;;;;5018721;28;20353;-71
2024/01/15 00:10:21;;;;;;;2.47;2.27;;;18.80;37.20;;;;;;5028677;28;20716;-70
2024/01/15 00:12:46;;;;;;;2.57;2.37;;;18.80;37.20;;;;;;5017967;28;20215;-71
2024/01/15 00:15:12;;;;;;;2.40;2.20;;;18.80;37.10;;;;;;5034616;28;20226;-70
2024/01/15 00:17:38;;;;;;;2.93;2.73;;;18.80;37.20;;;;;;5022309;28;20713;-70
2024/01/15 00:20:04;;;;;;;2.70;2.50;;;18.80;37.20;;;;;;5019630;28;20306;-70
2024/01/15 00:22:30;;;;;;;2.60;2.50;;;18.80;37.20;;;;;;5030406;28;20460;-71
2024/01/15 00:24:56;;;;;;;2.40;2.20;;;18.80;37.20;;;;;;5031515;28;20410;-70
2024/01/15 00:27:22;;;;;;;2.57;2.43;;;18.80;37.20;;;;;;5037682;28;20452;-70
2024/01/15 00:29:48;;;;;;;2.30;2.20;;;18.80;37.20;;;;;;5022407;28;20225;-69
2024/01/15 00:32:13;;;;;;;2.23;2.13;;;18.80;37.20;;;;;;5021353;28;20269;-68
2024/01/15 00:34:39;;;;;;;2.30;2.20;;;18.80;37.20;;;;;;5025621;28;20442;-69
2024/01/15 00:37:06;;;;;;;2.80;2.60;;;18.80;37.20;;;;;;5017835;28;20226;-68
2024/01/15 00:39:32;;;;;;;2.90;2.70;;;18.80;37.20;;;;;;5050145;28;20232;-69
2024/01/15 00:41:58;;;;;;;2.07;1.97;;;18.80;37.20;;;;;;5031419;28;20433;-68
2024/01/15 00:44:23;;;;;;;3.00;2.50;;;18.80;37.20;;;;;;5026867;28;20289;-69
2024/01/15 00:46:49;;;;;;;2.60;2.40;;;18.80;37.20;;;;;;5020266;28;20682;-68
2024/01/15 00:49:15;;;;;;;2.47;2.27;;;18.80;37.20;;;;;;5021348;28;21118;-67
2024/01/15 00:51:41;;;;;;;2.47;2.37;;;18.80;37.20;;;;;;5018251;28;20212;-68
2024/01/15 00:54:06;;;;;;;2.57;2.37;;;18.80;37.20;;;;;;5027688;28;20222;-68
2024/01/15 00:56:32;;;;;;;2.20;2.10;;;18.80;37.20;;;;;;5024867;28;20215;-68
2024/01/15 00:58:57;;;;;;;2.67;2.47;;;18.80;37.20;;;;;;5039911;28;20693;-68
2024/01/15 01:01:23;;;;;;;2.50;2.30;;;18.80;37.20;;;;;;5033047;28;20634;-68
2024/01/15 01:03:48;;;;;;;2.60;2.47;;;18.80;37.20;;;;;;5031062;28;20227;-68
2024/01/15 01:06:14;;;;;;;2.47;2.37;;;18.80;37.20;;;;;;5026639;28;20672;-68
2024/01/15 01:08:40;;;;;;;2.40;2.20;;;18.80;37.20;;;;;;5021056;28;20237;-68
2024/01/15 01:11:06;;;;;;;2.70;2.50;;;18.80;37.20;;;;;;5020394;28;20218;-68
2024/01/15 01:13:32;;;;;;;2.70;2.50;;;18.80;37.20;;;;;;5023638;28;20697;-68
2024/01/15 01:15:58;;;;;;;2.30;2.20;;;18.80;37.20;;;;;;5025251;28;20435;-68
2024/01/15 01:18:23;;;;;;;2.93;2.67;;;18.80;37.30;;;;;;5026455;28;20276;-68
2024/01/15 01:20:49;;;;;;;2.33;2.23;;;18.80;37.20;;;;;;5020316;28;20234;-67
2024/01/15 01:23:15;;;;;;;2.60;2.50;;;18.80;37.20;;;;;;5026658;28;20501;-67
2024/01/15 01:25:40;;;;;;;2.27;2.17;;;18.80;37.20;;;;;;5036272;28;20263;-68
2024/01/15 01:28:06;;;;;;;2.77;2.57;;;18.80;37.20;;;;;;5033593;28;20224;-69
2024/01/15 01:30:32;;;;;;;2.53;2.33;;;18.80;37.20;;;;;;5030346;28;20842;-68
2024/01/15 01:32:57;;;;;;;2.40;2.30;;;18.80;37.20;;;;;;5019644;28;21137;-69
2024/01/15 01:35:23;;;;;;;2.20;2.10;;;18.80;37.20;;;;;;5034825;28;20218;-67
2024/01/15 01:37:48;;;;;;;2.70;2.50;;;18.80;37.10;;;;;;5020528;28;20223;-68
2024/01/15 01:40:14;;;;;;;2.10;2.00;;;18.80;37.20;;;;;;5035265;28;20234;-68
2024/01/15 01:42:40;;;;;;;2.07;1.97;;;18.70;37.10;;;;;;5036576;28;20283;-67
2024/01/15 01:45:05;;;;;;;2.60;2.50;;;18.80;37.20;;;;;;5035304;28;20309;-68
2024/01/15 01:47:32;;;;;;;2.10;2.00;;;18.80;37.30;;;;;;5034056;28;20245;-69
2024/01/15 01:49:57;;;;;;;2.73;2.37;;;18.80;37.20;;;;;;5036108;28;20317;-68
2024/01/15 01:52:23;;;;;;;2.60;2.40;;;18.80;37.20;;;;;;5019553;28;20844;-67
2024/01/15 01:54:50;;;;;;;2.77;2.57;;;18.70;37.10;;;;;;5023078;28;20226;-67
2024/01/15 01:57:16;;;;;;;3.13;2.93;;;18.80;37.20;;;;;;5020665;28;20436;-68
2024/01/15 01:59:42;;;;;;;2.57;2.37;;;18.80;37.20;;;;;;5023532;28;20471;-67
2024/01/15 02:02:08;;;;;;;2.43;2.13;;;18.80;37.30;;;;;;5025351;28;20415;-67
2024/01/15 02:04:36;;;;;;;2.70;2.50;;;18.70;37.10;;;;;;5017441;28;20230;-68
2024/01/15 02:07:02;;;;;;;2.60;2.40;;;18.80;37.20;;;;;;5029810;28;20218;-68
2024/01/15 02:09:28;;;;;;;2.30;2.20;;;18.70;37.10;;;;;;5033447;28;20447;-68
2024/01/15 02:11:53;;;;;;;2.40;2.30;;;18.80;37.20;;;;;;5038095;28;20781;-68
2024/01/15 02:14:19;;;;;;;2.70;2.50;;;18.70;37.20;;;;;;5038664;28;20565;-67
2024/01/15 02:16:44;;;;;;;2.00;1.90;;;18.80;37.20;;;;;;5038372;28;20233;-68
2024/01/15 02:19:17;;;;;;;2.13;2.03;;;18.70;37.10;;;;;;5026929;28;20607;-68
2024/01/15 02:21:43;;;;;;;2.70;2.50;;;18.70;37.10;;;;;;5020804;28;20305;-68
2024/01/15 02:24:08;;;;;;;2.10;2.00;;;18.70;37.20;;;;;;5019609;28;20469;-68
2024/01/15 02:26:35;;;;;;;2.20;2.10;;;18.70;37.20;;;;;;5024834;28;20356;-67
2024/01/15 02:29:02;;;;;;;2.23;2.13;;;18.70;37.20;;;;;;5020844;28;20241;-68
2024/01/15 02:31:27;;;;;;;2.30;2.20;;;18.70;37.20;;;;;;5027637;28;20472;-69
2024/01/15 02:33:53;;;;;;;2.17;2.07;;;18.70;37.20;;;;;;5032333;28;20445;-69
2024/01/15 02:36:18;;;;;;;2.50;2.30;;;18.70;37.20;;;;;;5038802;28;20229;-69
2024/01/15 02:38:44;;;;;;;2.63;2.43;;;18.70;37.20;;;;;;5020954;28;20207;-70
2024/01/15 02:41:09;;;;;;;2.20;2.10;;;18.70;37.20;;;;;;5019997;28;20239;-70
2024/01/15 02:43:35;;;;;;;2.53;2.33;;;18.70;37.20;;;;;;5019728;28;20758;-69
2024/01/15 02:46:00;;;;;;;2.30;2.10;;;18.70;37.20;;;;;;5019576;28;20796;-69
2024/01/15 02:48:26;;;;;;;2.13;1.70;;;18.70;37.20;;;;;;5025249;28;20302;-69
2024/01/15 02:50:52;;;;;;;2.40;2.20;;;18.70;37.20;;;;;;5027096;28;20230;-69
2024/01/15 02:53:17;;;;;;;2.30;2.20;;;18.70;37.20;;;;;;5032943;28;20229;-69
2024/01/15 02:55:43;;;;;;;2.13;2.03;;;18.70;37.20;;;;;;5029669;28;20728;-69
2024/01/15 02:58:08;;;;;;;2.20;2.10;;;18.70;37.10;;;;;;5036351;28;20705;-69
2024/01/15 03:00:34;;;;;;;2.20;2.10;;;18.70;37.20;;;;;;5025556;28;20226;-69
2024/01/15 03:02:59;;;;;;;2.23;2.10;;;18.70;37.20;;;;;;5025871;28;20229;-69
2024/01/15 03:05:25;;;;;;;2.07;1.97;;;18.70;37.20;;;;;;5017808;28;20408;-68
2024/01/15 03:07:50;;;;;;;2.30;2.20;;;18.70;37.20;;;;;;5024174;28;20218;-69
2024/01/15 03:10:16;;;;;;;2.10;2.00;;;18.70;37.10;;;;;;5025880;28;20237;-69
2024/01/15 03:12:41;;;;;;;2.30;2.20;;;18.70;37.20;;;;;;5038426;28;20217;-69
2024/01/15 03:15:07;;;;;;;2.03;1.93;;;18.70;37.10;;;;;;5026240;28;20297;-69
2024/01/15 03:17:33;;;;;;;1.90;1.80;;;18.70;37.10;;;;;;5032209;28;20310;-69
2024/01/15 03:19:58;;;;;;;1.93;1.83;;;18.70;37.20;;;;;;5025027;28;20632;-69
2024/01/15 03:22:24;;;;;;;1.80;1.70;;;18.70;37.10;;;;;;5021170;28;20663;-69
2024/01/15 03:24:49;;;;;;;2.00;1.90;;;18.80;37.20;;;;;;5043477;28;21188;-69
2024/01/15 03:27:15;;;;;;;2.23;2.13;;;18.70;37.10;;;;;;5023269;28;20225;-69
2024/01/15 03:29:41;;;;;;;4.40;2.17;;;18.70;37.10;;;;;;5034371;28;20297;-69
2024/01/15 03:32:07;;;;;;;2.10;1.90;;;18.70;37.10;;;;;;5020911;28;20579;-69
2024/01/15 03:34:32;;;;;;;2.10;2.00;;;18.80;37.20;;;;;;5025412;28;20422;-69
2024/01/15 03:36:59;;;;;;;2.20;2.10;;;18.70;37.10;;;;;;5030325;28;20222;-69
2024/01/15 03:39:24;;;;;;;2.03;1.93;;;18.80;37.20;;;;;;5058325;28;20653;-68
2024/01/15 03:41:50;;;;;;;2.33;2.23;;;18.80;37.20;;;;;;5037993;28;20440;-67
2024/01/15 03:44:15;;;;;;;2.20;2.10;;;18.70;37.10;;;;;;5020928;28;20226;-68
2024/01/15 03:46:41;;;;;;;3.00;2.83;;;18.80;37.20;;;;;;5018220;28;20214;-69
2024/01/15 03:49:06;;;;;;;1.77;1.67;;;18.70;37.20;;;;;;5030919;28;20325;-68
2024/01/15 03:51:32;;;;;;;1.90;1.80;;;18.70;37.10;;;;;;5029456;28;20587;-68
2024/01/15 03:53:58;;;;;;;2.00;1.90;;;18.70;37.10;;;;;;5015730;28;20310;-67
2024/01/15 03:56:23;;;;;;;1.70;1.60;;;18.70;37.10;;;;;;5017906;28;20227;-68
2024/01/15 03:58:49;;;;;;;2.13;2.03;;;18.70;37.10;;;;;;5025836;28;20221;-68
2024/01/15 04:01:14;;;;;;;2.37;2.27;;;18.70;37.10;;;;;;5029311;28;20257;-67
2024/01/15 04:03:40;;;;;;;1.90;1.80;;;18.70;37.10;;;;;;5024282;28;20219;-67
2024/01/15 04:06:05;;;;;;;2.27;2.17;;;18.70;37.10;;;;;;5027581;28;20218;-67
2024/01/15 04:08:31;;;;;;;1.97;1.77;;;18.70;37.10;;;;;;5022159;28;20230;-67
2024/01/15 04:10:56;;;;;;;2.30;2.20;;;18.70;37.10;;;;;;5024977;28;20269;-69
2024/01/15 04:13:22;;;;;;;2.10;2.00;;;18.70;37.20;;;;;;5025722;28;20681;-70
2024/01/15 04:15:48;;;;;;;1.90;1.80;;;18.70;37.20;;;;;;5014408;28;20417;-69
2024/01/15 04:18:16;;;;;;;1.70;1.60;;;18.70;37.10;;;;;;5022921;28;20288;-69
2024/01/15 04:20:41;;;;;;;1.60;1.50;;;18.70;37.10;;;;;;5017793;28;20785;-69
2024/01/15 04:23:07;;;;;;;1.70;1.60;;;18.70;37.10;;;;;;5026637;28;20440;-69
2024/01/15 04:25:32;;;;;;;2.10;2.00;;;18.70;37.10;;;;;;5018527;28;20219;-68
2024/01/15 04:27:58;;;;;;;2.30;1.60;;;18.70;37.10;;;;;;5035757;28;20214;-69
2024/01/15 04:30:24;;;;;;;2.20;2.10;;;18.70;37.10;;;;;;5022227;28;20689;-69
2024/01/15 04:32:49;;;;;;;2.37;1.80;;;18.70;37.10;;;;;;5023530;28;20264;-69
2024/01/15 04:35:15;;;;;;;1.90;1.80;;;18.70;37.10;;;;;;5025021;28;20704;-69
2024/01/15 04:37:40;;;;;;;1.73;1.63;;;18.70;37.10;;;;;;5023826;28;20275;-69
2024/01/15 04:40:07;;;;;;;1.80;1.70;;;18.70;37.10;;;;;;5019501;28;20226;-68
2024/01/15 04:42:33;;;;;;;1.50;1.40;;;18.70;37.10;;;;;;5036792;28;20214;-69
2024/01/15 04:44:58;;;;;;;1.97;1.87;;;18.70;37.10;;;;;;5037246;28;20426;-69
2024/01/15 04:47:24;;;;;;;1.80;1.70;;;18.70;37.10;;;;;;5027880;28;20222;-69
2024/01/15 04:49:49;;;;;;;1.80;1.70;;;18.70;37.10;;;;;;5016183;28;21075;-69
2024/01/15 04:52:15;;;;;;;2.03;1.93;;;18.70;37.10;;;;;;5015844;28;20218;-68
2024/01/15 04:54:41;;;;;;;1.80;1.70;;;18.80;37.10;;;;;;5025881;28;20223;-69
2024/01/15 04:57:06;;;;;;;1.73;1.63;;;18.80;37.10;;;;;;5015722;28;20214;-68
2024/01/15 04:59:32;;;;;;;1.70;1.60;;;18.80;37.10;;;;;;5028402;28;20234;-68
2024/01/15 05:01:57;;;;;;;1.50;1.40;;;18.80;37.10;;;;;;5014105;28;20218;-68
2024/01/15 05:04:24;;;;;;;2.00;1.90;;;18.80;37.10;;;;;;5027789;28;20226;-67
2024/01/15 05:06:50;;;;;;;1.63;1.53;;;18.80;37.00;;;;;;5021132;28;20237;-67
2024/01/15 05:09:16;;;;;;;1.70;1.60;;;18.80;37.00;;;;;;5030249;28;20438;-67
2024/01/15 05:11:41;;;;;;;1.60;1.50;;;18.80;37.00;;;;;;5037134;28;20229;-68
2024/01/15 05:14:07;;;;;;;1.93;1.60;;;18.90;37.00;;;;;;5032085;28;20261;-68
2024/01/15 05:16:32;;;;;;;4.73;1.87;;;18.90;36.90;;;;;;5015929;28;20223;-67
2024/01/15 05:18:58;;;;;;;1.57;1.40;;;18.90;36.90;;;;;;5020955;28;20219;-68
2024/01/15 05:21:23;;;;;;;1.57;1.47;;;18.90;36.80;;;;;;5028276;28;20677;-69
2024/01/15 05:23:49;;;;;;;1.73;1.63;;;18.90;36.80;;;;;;5030044;28;20251;-69
2024/01/15 05:26:14;;;;;;;2.17;2.07;;;18.90;36.70;;;;;;5012935;28;20220;-72
2024/01/15 05:28:43;;;;;;;1.50;1.40;;;19.00;36.80;;;;;;5020880;28;20234;-72
2024/01/15 05:31:09;;;;;;;1.67;1.57;;;19.00;36.80;;;;;;5029827;28;20222;-72
2024/01/15 05:33:35;;;;;;;1.53;1.43;;;19.00;36.80;;;;;;5031484;28;20487;-71
2024/01/15 05:36:00;;;;;;;1.60;1.50;;;19.00;36.80;;;;;;5017068;28;20222;-69
2024/01/15 05:38:27;;;;;;;1.97;1.87;;;19.00;36.80;;;;;;5012287;28;20772;-68
2024/01/15 05:40:52;;;;;;;1.50;1.40;;;19.00;36.70;;;;;;5021912;28;20757;-70
2024/01/15 05:43:18;;;;;;;1.80;1.70;;;19.00;36.70;;;;;;5026013;28;20475;-69
2024/01/15 05:45:44;;;;;;;1.70;1.60;;;19.00;36.80;;;;;;5033667;28;20314;-70
2024/01/15 05:48:10;;;;;;;1.87;1.77;;;19.00;36.70;;;;;;5031172;28;20230;-70
2024/01/15 05:50:36;;;;;;;1.90;1.80;;;19.00;36.80;;;;;;5033927;28;20464;-69
2024/01/15 05:53:02;;;;;;;1.43;1.33;;;19.00;36.70;;;;;;5038677;28;20226;-68
2024/01/15 05:55:28;;;;;;;1.70;1.60;;;19.00;36.80;;;;;;5024332;28;22301;-67
2024/01/15 05:57:53;;;;;;;1.57;1.40;;;19.00;36.70;;;;;;5035186;28;20441;-67
2024/01/15 06:00:19;;;;;;;1.90;1.80;;;19.00;36.70;;;;;;5026578;28;20296;-68
2024/01/15 06:02:44;;;;;;;1.40;1.30;;;19.00;36.70;;;;;;5021132;28;20218;-72
2024/01/15 06:05:10;;;;;;;1.73;1.63;;;19.00;36.70;;;;;;5022133;28;20226;-72
2024/01/15 06:07:36;;;;;;;1.30;1.20;;;19.00;36.70;;;;;;5032388;28;20226;-70
2024/01/15 06:10:02;;;;;;;2.00;1.40;;;19.00;36.70;;;;;;5030761;28;20226;-71
2024/01/15 06:12:28;;;;;;;1.50;1.40;;;19.00;36.60;;;;;;5018515;28;20438;-70
2024/01/15 06:14:53;;;;;;;2.13;1.93;;;19.00;36.60;;;;;;5025972;28;20422;-70
2024/01/15 06:17:19;;;;;;;1.33;1.20;;;19.00;36.60;;;;;;5014648;28;20226;-70
2024/01/15 06:19:45;;;;;;;1.67;1.57;;;19.00;36.60;;;;;;5030269;28;20227;-72
2024/01/15 06:22:10;;;;;;;3.47;1.80;;;19.00;36.70;;;;;;5026667;28;20302;-70
2024/01/15 06:24:36;;;;;;;1.53;1.43;;;19.00;36.70;;;;;;5026271;28;20225;-71
2024/01/15 06:27:01;;;;;;;1.40;1.30;;;19.00;36.60;;;;;;5029137;28;20233;-71
2024/01/15 06:29:28;;;;;;;4.00;1.70;;;19.00;36.60;;;;;;5022861;28;20214;-72
2024/01/15 06:31:53;;;;;;;1.43;1.33;;;19.00;36.60;;;;;;5025364;28;20287;-69
2024/01/15 06:34:19;;;;;;;1.50;1.40;;;19.00;36.50;;;;;;5022725;28;21519;-70
2024/01/15 06:36:45;;;;;;;1.40;1.30;;;19.00;36.60;;;;;;5020656;28;20305;-69
2024/01/15 06:39:11;;;;;;;3.03;1.50;;;19.00;37.30;;;;;;5015450;28;20235;-71
2024/01/15 06:41:43;;;;;;;1.60;1.50;;;19.00;36.50;;;;;;5033385;28;20263;-70
2024/01/15 06:44:12;;;;;;;1.33;1.20;;;19.00;36.50;;;;;;5040898;28;20217;-71
2024/01/15 06:46:44;;;;;;;1.67;1.57;;;19.00;36.40;;;;;;5025684;28;20475;-71
2024/01/15 06:49:10;;;;;;;2.23;1.30;;;18.90;36.30;;;;;;5021749;28;20426;-69
2024/01/15 06:51:35;;;;;;;1.70;1.60;;;18.90;36.20;;;;;;5030052;28;20458;-69
2024/01/15 06:54:01;;;;;;;7.33;1.53;;;18.90;36.20;;;;;;5031384;28;20705;-70
2024/01/15 06:56:27;;;;;;;1.80;1.33;;;18.90;36.20;;;;;;5025964;28;20226;-70
2024/01/15 06:58:53;;;;;;;1.43;1.30;;;18.90;36.20;;;;;;5065565;28;20434;-71
2024/01/15 07:01:18;;;;;;;1.40;1.30;;;18.90;36.10;;;;;;5014744;28;20234;-68
2024/01/15 07:03:44;;;;;;;1.87;1.67;;;18.90;36.20;;;;;;5026446;28;20229;-71
2024/01/15 07:06:10;;;;;;;1.60;1.40;;;18.90;36.10;;;;;;5018557;28;20697;-71
2024/01/15 07:08:36;;;;;;;1.50;1.30;;;18.90;36.10;;;;;;5025891;28;20226;-70
2024/01/15 07:11:04;;;;;;;1.50;1.40;;;18.90;36.10;;;;;;5027376;28;20450;-71
2024/01/15 07:13:30;;;;;;;1.20;1.10;;;18.90;36.10;;;;;;5033302;28;20583;-69
2024/01/15 07:15:55;;;;;;;3.43;1.50;;;18.90;36.10;;;;;;5021145;28;20446;-72
2024/01/15 07:18:21;;;;;;;1.60;1.50;;;18.90;36.10;;;;;;5018479;28;23943;-69
2024/01/15 07:20:46;;;;;;;1.40;1.30;;;18.90;36.00;;;;;;5023313;28;20222;-70
2024/01/15 07:23:12;;;;;;;1.50;1.40;;;18.90;36.10;;;;;;5032558;28;20210;-71
2024/01/15 07:25:37;;;;;;;1.50;1.40;;;18.90;36.00;;;;;;5022661;28;20226;-69
2024/01/15 07:28:03;;;;;;;1.20;1.10;;;18.90;36.00;;;;;;5041375;28;20206;-71
2024/01/15 07:30:29;;;;;;;1.83;1.30;;;18.90;36.00;;;;;;5029591;28;20548;-70
2024/01/15 07:32:55;;;;;;;1.43;1.30;;;18.90;36.00;;;;;;5041070;28;20532;-70
2024/01/15 07:35:21;;;;;;;1.30;1.20;;;18.90;36.00;;;;;;5036635;28;20257;-69
2024/01/15 07:37:46;;;;;;;1.33;1.23;;;18.90;36.00;;;;;;5015983;28;20230;-70
2024/01/15 07:40:12;;;;;;;1.50;1.40;;;18.90;36.00;;;;;;5017477;28;20463;-70
2024/01/15 07:42:42;;;;;;;1.30;1.17;;;18.90;36.00;;;;;;5022575;28;20294;-69
2024/01/15 07:45:08;;;;;;;1.40;1.27;;;18.90;36.00;;;;;;5024029;28;20225;-71
2024/01/15 07:47:33;;;;;;;1.30;1.13;;;18.90;36.10;;;;;;5016486;28;20482;-70
2024/01/15 07:49:59;;;;;;;1.37;1.27;;;18.90;36.00;;;;;;5028081;28;20968;-70
2024/01/15 07:52:25;;;;;;;2.10;1.30;;;18.90;36.00;;;;;;5014704;28;20222;-74
2024/01/15 07:54:50;;;;;;;1.40;1.20;;;18.90;36.00;;;;;;5018207;28;20222;-73
2024/01/15 07:57:16;;;;;;;1.50;1.40;;;18.90;36.00;;;;;;5017137;28;20310;-70
2024/01/15 07:59:41;;;;;;;1.43;1.10;;;18.90;36.00;;;;;;5026041;28;20222;-69
2024/01/15 08:02:07;;;;;;;1.37;1.20;;;18.90;36.00;;;;;;5027923;28;20212;-71
2024/01/15 08:04:32;;;;;;;1.37;1.27;;;18.90;36.00;;;;;;5032861;28;20219;-72
2024/01/15 08:06:58;;;;;;;1.47;1.13;;;18.90;36.00;;;;;;5001368;28;20210;-73
2024/01/15 08:09:24;;;;;;;1.80;1.10;;;18.90;36.00;;;;;;5022849;28;20217;-72
2024/01/15 08:11:49;;;;;;;3.73;2.60;;;18.90;36.00;;;;;;5033954;28;20230;-71
2024/01/15 08:14:15;;;;;;;1.73;1.20;;;18.90;36.00;;;;;;5028634;28;20267;-72
2024/01/15 08:16:40;;;;;;;2.07;1.17;;;18.90;36.10;;;;;;5013590;28;20234;-71
2024/01/15 08:19:07;;;;;;;1.93;1.50;;;18.90;36.10;;;;;;5022117;28;20222;-72
2024/01/15 08:21:32;;;;;;;1.30;1.20;;;18.90;36.20;;;;;;5014283;28;20225;-70
2024/01/15 08:23:59;;;;;;;1.27;1.17;;;18.90;36.20;;;;;;5030650;28;20430;-70
2024/01/15 08:26:25;;;;;;;1.33;1.23;;;18.90;36.20;;;;;;5016904;28;20321;-69
2024/01/15 08:28:50;;;;;;;2.17;1.57;;;18.90;36.30;;;;;;5029653;28;20912;-70
2024/01/15 08:31:16;;;;;;;1.60;1.50;;;18.90;36.30;;;;;;5022268;28;20619;-70
2024/01/15 08:33:42;;;;;;;2.70;1.60;;;18.90;36.30;;;;;;5015795;28;21851;-70
2024/01/15 08:36:08;;;;;;;1.27;1.17;;;18.90;36.40;;;;;;5023930;28;20422;-70
2024/01/15 08:38:34;;;;;;;1.40;1.30;;;18.90;36.50;;;;;;5028637;28;20279;-67
2024/01/15 08:41:00;;;;;;;1.87;1.13;;;18.90;36.50;;;;;;5015432;28;21365;-71
2024/01/15 08:43:26;;;;;;;1.10;1.00;;;18.90;36.60;;;;;;5006068;28;20235;-72
2024/01/15 08:45:52;;;;;;;1.47;1.13;;;18.90;36.60;;;;;;5013888;28;20235;-71
2024/01/15 08:48:18;;;;;;;1.33;1.23;;;18.90;36.60;;;;;;5023484;28;20508;-71
2024/01/15 08:50:47;;;;;;;1.30;1.20;;;18.90;36.60;;;;;;5029976;28;20249;-71
2024/01/15 08:53:13;;;;;;;1.10;1.00;;;18.90;36.70;;;;;;5017577;28;20228;-71
2024/01/15 08:55:38;;;;;;;1.37;1.27;;;18.90;36.70;;;;;;5024175;28;20538;-72
2024/01/15 08:58:04;;;;;;;1.30;1.10;;;18.90;36.70;;;;;;5028001;28;20525;-72
2024/01/15 09:00:30;;;;;;;1.10;1.00;;;18.90;36.70;;;;;;5008871;28;20261;-73
2024/01/15 09:02:56;;;;;;;1.93;1.57;;;18.90;36.80;;;;;;5011702;28;20329;-73
2024/01/15 09:05:22;;;;;;;1.20;1.10;;;18.90;36.80;;;;;;5009259;28;20237;-72
2024/01/15 09:07:48;;;;;;;1.30;1.20;;;18.90;36.80;;;;;;5025264;28;20461;-71
2024/01/15 09:10:14;;;;;;;1.20;1.10;;;18.90;36.80;;;;;;4999533;28;20594;-74
2024/01/15 09:12:39;;;;;;;1.07;1.07;;;18.90;36.90;;;;;;5011845;28;20230;-74
2024/01/15 09:15:05;;;;;;;1.20;1.10;;;18.90;36.90;;;;;;5018410;28;20460;-73
2024/01/15 09:17:34;;;;;;;1.57;1.00;;;18.90;36.80;;;;;;5042040;28;20222;-73
2024/01/15 09:20:00;;;;;;;1.23;1.13;;;18.90;36.90;;;;;;5020079;28;20975;-72
2024/01/15 09:22:25;;;;;;;1.10;1.00;;;18.90;36.90;;;;;;5039098;28;20932;-72
2024/01/15 09:24:52;;;;;;;1.30;1.00;;;18.90;36.90;;;;;;5043263;28;20425;-71
2024/01/15 09:27:17;;;;;;;1.03;1.00;;;18.90;36.90;;;;;;5034427;28;20663;-72
2024/01/15 09:29:45;;;;;;;2.17;0.90;;;18.90;36.90;;;;;;5032821;28;20504;-70
2024/01/15 09:32:11;;;;;;;1.40;1.30;;;18.90;36.90;;;;;;5027595;28;20510;-71
2024/01/15 09:34:37;;;;;;;1.60;1.00;;;18.90;36.90;;;;;;5024909;28;20452;-70
2024/01/15 09:37:03;;;;;;;0.80;0.80;;;18.90;36.90;;;;;;5030484;28;20793;-70
2024/01/15 09:39:30;;;;;;;1.23;1.13;;;18.80;36.80;;;;;;5028980;28;20312;-70
2024/01/15 09:41:56;;;;;;;1.50;1.23;;;18.80;36.80;;;;;;5022763;28;20454;-70
2024/01/15 09:44:22;;;;;;;0.93;0.83;;;18.80;36.70;;;;;;5024593;28;20417;-72
2024/01/15 09:46:50;;;;;;;1.00;0.90;;;18.80;36.80;;;;;;5032349;28;20226;-70
2024/01/15 09:49:16;;;;;;;0.80;0.80;;;18.80;36.80;;;;;;5028423;28;20974;-70
2024/01/15 09:51:42;;;;;;;1.10;1.00;;;18.80;36.70;;;;;;5025147;28;20483;-69
2024/01/15 09:54:08;;;;;;;1.03;0.93;;;18.80;36.70;;;;;;5024318;28;20417;-71
2024/01/15 09:56:35;;;;;;;1.10;1.00;;;18.80;36.80;;;;;;5031285;28;20545;-70
2024/01/15 09:59:01;;;;;;;0.77;0.77;;;18.80;36.80;;;;;;5035587;28;20441;-71
2024/01/15 10:01:27;;;;;;;0.90;0.90;;;18.80;36.70;;;;;;5024599;28;20472;-70
2024/01/15 10:03:54;;;;;;;0.70;0.70;;;18.80;36.80;;;;;;5028039;28;20462;-70
2024/01/15 10:06:21;;;;;;;0.80;0.80;;;18.80;36.80;;;;;;5024164;28;20438;-70
2024/01/15 10:08:49;;;;;;;0.77;0.77;;;18.80;36.80;;;;;;5017393;28;20475;-70
2024/01/15 10:11:14;;;;;;;0.80;0.70;;;18.80;36.70;;;;;;5023301;28;20553;-72
2024/01/15 10:13:40;;;;;;;0.93;0.93;;;18.80;36.70;;;;;;5025985;28;20956;-70
2024/01/15 10:16:06;;;;;;;0.80;0.70;;;18.80;36.70;;;;;;5033789;28;20234;-70
2024/01/15 10:18:32;;;;;;;0.80;0.80;;;18.80;36.70;;;;;;5031302;28;20863;-70
2024/01/15 10:20:58;;;;;;;0.80;0.80;;;18.80;36.80;;;;;;5017133;28;20234;-71
2024/01/15 10:23:24;;;;;;;1.00;0.83;;;18.80;36.70;;;;;;5027460;28;20454;-71
2024/01/15 10:25:51;;;;;;;0.77;0.77;;;18.80;36.80;;;;;;5027930;28;20231;-71
2024/01/15 10:28:18;;;;;;;1.00;0.83;;;18.80;36.80;;;;;;5036083;28;20636;-71
2024/01/15 10:30:44;;;;;;;0.80;0.73;;;18.80;36.80;;;;;;5029960;28;20459;-72
2024/01/15 10:33:11;;;;;;;0.93;0.90;;;18.80;36.80;;;;;;5037211;28;20526;-71
2024/01/15 10:35:37;;;;;;;0.80;0.80;;;18.80;36.80;;;;;;5030011;28;20271;-72
2024/01/15 10:38:05;;;;;;;0.90;0.80;;;18.80;36.70;;;;;;5035716;28;20463;-72
2024/01/15 10:40:31;;;;;;;1.07;0.80;;;18.80;36.80;;;;;;5032564;28;20450;-72
2024/01/15 10:42:56;;;;;;;1.00;0.90;;;18.80;36.80;;;;;;5029970;28;20946;-72
2024/01/15 10:45:22;;;;;;;1.47;0.90;;;18.80;36.80;;;;;;5022884;28;20472;-72
2024/01/15 10:47:48;;;;;;;0.70;0.70;;;18.80;36.80;;;;;;5024572;28;20254;-71
2024/01/15 10:50:14;;;;;;;0.80;0.80;;;18.80;36.80;;;;;;5026462;28;20215;-72
2024/01/15 10:52:40;;;;;;;1.00;0.90;;;18.80;36.80;;;;;;5026987;28;20306;-71
2024/01/15 10:55:09;;;;;;;0.70;0.70;;;18.80;36.80;;;;;;5023525;28;20245;-72
2024/01/15 10:57:38;;;;;;;0.97;0.87;;;18.80;36.80;;;;;;5023757;28;20485;-71
2024/01/15 11:00:05;;;;;;;1.03;0.90;;;18.80;36.80;;;;;;5024549;28;20443;-71
2024/01/15 11:02:37;;;;;;;0.70;0.70;;;18.80;36.80;;;;;;5033871;28;21464;-72
2024/01/15 11:05:03;;;;;;;1.07;0.97;;;18.80;36.80;;;;;;5032170;28;20441;-72
2024/01/15 11:07:31;;;;;;;0.70;0.70;;;18.80;36.80;;;;;;5030641;28;20434;-72
2024/01/15 11:10:00;;;;;;;0.80;0.80;;;18.80;36.90;;;;;;5029848;28;20343;-72
2024/01/15 11:12:26;;;;;;;0.73;0.70;;;18.80;36.80;;;;;;5041710;28;20458;-73
2024/01/15 11:14:54;;;;;;;1.20;1.00;;;18.80;36.90;;;;;;5026063;28;21009;-71
2024/01/15 11:17:20;;;;;;;0.80;0.80;;;18.80;36.80;;;;;;5031203;28;20525;-72
2024/01/15 11:19:50;;;;;;;0.70;0.70;;;18.80;36.80;;;;;;5025800;28;20526;-71
2024/01/15 11:22:30;;;;;;;0.70;0.70;;;18.80;36.90;;;;;;5021929;28;20239;-72
2024/01/15 11:25:17;;;;;;;0.80;0.70;;;18.80;36.90;;;;;;5027632;28;20460;-71
2024/01/15 11:27:47;;;;;;;1.10;1.00;;;18.80;36.80;;;;;;5028682;28;20506;-72
2024/01/15 11:30:14;;;;;;;0.77;0.77;;;18.80;36.90;;;;;;5028878;28;20967;-72
2024/01/15 11:32:43;;;;;;;0.73;0.73;;;18.80;36.80;;;;;;5032606;28;20487;-72
2024/01/15 11:35:10;;;;;;;0.73;0.73;;;18.80;36.90;;;;;;5035138;28;21226;-73
2024/01/15 11:37:51;;;;;;;0.97;0.90;;;18.80;36.90;;;;;;5023472;28;20968;-72
2024/01/15 11:40:35;;;;;;;0.80;0.80;;;18.80;36.90;;;;;;5019855;28;20467;-72
2024/01/15 11:43:02;;;;;;;0.83;0.83;;;18.80;36.90;;;;;;5020115;28;21066;-70
2024/01/15 11:45:29;;;;;;;0.80;0.80;;;18.80;36.90;;;;;;5020986;28;20802;-71
2024/01/15 11:48:12;;;;;;;0.87;0.80;;;18.80;36.80;;;;;;5022103;28;21113;-71
2024/01/15 11:50:58;;;;;;;0.80;0.70;;;18.80;36.80;;;;;;5016718;28;20517;-72
2024/01/15 11:53:40;;;;;;;0.90;0.80;;;18.80;36.90;;;;;;5042378;28;20451;-73
2024/01/15 11:56:14;;;;;;;0.90;0.80;;;18.80;36.80;;;;;;5020724;28;20788;-77
2024/01/15 11:58:40;;;;;;;0.83;0.83;;;18.80;36.80;;;;;;5040119;28;20451;-75
2024/01/15 12:01:05;;;;;;;0.73;0.73;;;18.80;36.80;;;;;;5044718;28;20932;-74
2024/01/15 12:03:33;;;;;;;0.70;0.70;;;18.80;36.80;;;;;;5024832;28;20228;-74
2024/01/15 12:05:59;;;;;;;0.90;0.90;;;18.80;36.80;;;;;;5027349;28;20694;-73
2024/01/15 12:08:27;;;;;;;0.80;0.80;;;18.80;36.70;;;;;;5031280;28;20418;-73
2024/01/15 12:10:53;;;;;;;0.70;0.70;;;18.80;36.70;;;;;;5015322;28;21294;-72
2024/01/15 12:13:19;;;;;;;0.80;0.80;;;18.80;36.70;;;;;;5031075;28;20491;-73
2024/01/15 12:15:46;;;;;;;0.80;0.77;;;18.80;36.70;;;;;;5020576;28;20571;-74
2024/01/15 12:18:13;;;;;;;0.80;0.70;;;18.80;36.80;;;;;;5035768;28;20438;-75
2024/01/15 12:20:40;;;;;;;0.90;0.90;;;18.80;36.70;;;;;;5029012;28;20459;-74
2024/01/15 12:23:06;;;;;;;0.80;0.80;;;18.90;36.90;;;;;;5020404;28;20792;-74
2024/01/15 12:25:32;;;;;;;0.70;0.70;;;18.80;36.80;;;;;;5021378;28;20427;-74
2024/01/15 12:27:59;;;;;;;0.77;0.70;;;18.90;36.80;;;;;;5026724;28;20226;-74
2024/01/15 12:30:31;;;;;;;0.87;0.80;;;18.80;36.80;;;;;;5025210;28;20452;-73
2024/01/15 12:32:57;;;;;;;0.60;0.60;;;18.90;36.80;;;;;;5018210;28;20434;-74
2024/01/15 12:35:26;;;;;;;0.70;0.60;;;18.80;36.80;;;;;;5016763;28;20434;-74
2024/01/15 12:37:51;;;;;;;0.70;0.70;;;18.80;36.80;;;;;;5021360;28;20230;-74
2024/01/15 12:40:21;;;;;;;0.90;0.80;;;18.90;36.90;;;;;;5021891;28;20800;-74
2024/01/15 12:42:47;;;;;;;0.67;0.60;;;18.80;36.80;;;;;;5020080;28;20219;-74